Time;durP1;ratioP1;P1;durP2;ratioP2;P2;SDS_P1;SDS_P2;PMS_P1;PMS_P2;Temp;Humidity;BMP_temperature;BMP_pressure;BME280_temperature;BME280_humidity;BME280_pressure;Samples;Min_cycle;Max_cycle;Signal;HPM_P1;HPM_P2
2022/05/27 00:00:54;;;;;;;3.03;1.00;;;;;;;16.21;65.66;101380.59;4965245;28;20122;-73
2022/05/27 00:03:19;;;;;;;1.10;1.00;;;;;;;16.24;65.73;101375.75;4934003;28;20107;-72
2022/05/27 00:05:48;;;;;;;0.70;0.70;;;;;;;16.27;65.41;101387.97;4970961;28;20010;-74
2022/05/27 00:08:14;;;;;;;2.03;1.00;;;;;;;16.13;65.45;101379.56;4951616;28;20011;-74
2022/05/27 00:10:39;;;;;;;2.28;0.85;;;;;;;16.09;65.58;101388.88;4951013;28;20010;-74
2022/05/27 00:13:05;;;;;;;2.78;1.10;;;;;;;16.20;64.84;101389.59;4968559;28;20743;-72
2022/05/27 00:15:30;;;;;;;0.80;0.80;;;;;;;16.06;65.29;101375.84;4933835;28;20019;-72
2022/05/27 00:17:55;;;;;;;1.95;1.00;;;;;;;16.03;65.27;101365.47;4968093;28;20011;-73
2022/05/27 00:20:21;;;;;;;2.85;1.10;;;;;;;16.00;65.21;101356.94;4969516;28;20944;-73
2022/05/27 00:22:46;;;;;;;1.00;0.82;;;;;;;15.98;65.48;101351.78;4969639;28;20281;-73
2022/05/27 00:25:11;;;;;;;2.13;1.13;;;;;;;15.97;65.58;101358.09;4952952;28;20037;-73
2022/05/27 00:27:37;;;;;;;1.05;0.85;;;;;;;15.93;65.68;101351.41;4955118;28;20317;-73
2022/05/27 00:30:03;;;;;;;1.08;0.98;;;;;;;15.98;65.60;101349.09;4972314;28;20014;-72
2022/05/27 00:32:28;;;;;;;2.25;1.05;;;;;;;15.86;66.21;101361.84;4954366;28;20015;-73
2022/05/27 00:34:53;;;;;;;1.98;1.10;;;;;;;15.80;66.13;101346.47;4966200;28;20025;-73
2022/05/27 00:37:19;;;;;;;2.20;1.20;;;;;;;15.89;65.96;101360.72;4970371;28;20222;-73
2022/05/27 00:39:44;;;;;;;3.45;0.95;;;;;;;15.90;65.84;101351.72;4934096;28;20034;-72
2022/05/27 00:42:09;;;;;;;1.40;1.13;;;;;;;15.88;66.15;101359.06;4960237;28;20303;-71
2022/05/27 00:44:35;;;;;;;1.65;1.25;;;;;;;15.98;65.69;101354.44;4947583;28;20018;-73
2022/05/27 00:47:05;;;;;;;1.25;1.10;;;;;;;15.85;66.12;101351.34;4958397;28;20014;-74
2022/05/27 00:49:30;;;;;;;1.15;1.05;;;;;;;15.91;66.01;101350.72;4935537;28;20034;-72
2022/05/27 00:52:06;;;;;;;2.10;1.10;;;;;;;15.89;66.32;101358.03;4939469;28;20998;-74
2022/05/27 00:54:31;;;;;;;1.27;1.10;;;;;;;15.89;66.10;101345.53;4952382;28;20029;-71
2022/05/27 00:57:00;;;;;;;1.92;1.20;;;;;;;15.85;66.36;101352.19;4947357;28;20531;-72
2022/05/27 00:59:33;;;;;;;1.52;1.40;;;;;;;15.99;65.88;101345.44;4961318;28;20023;-72
2022/05/27 01:01:59;;;;;;;2.38;1.40;;;;;;;15.83;66.17;101348.00;4918967;28;20074;-71
2022/05/27 01:04:24;;;;;;;2.63;1.42;;;;;;;15.80;66.52;101341.97;4935260;28;20309;-72
2022/05/27 01:06:49;;;;;;;3.47;1.60;;;;;;;15.75;66.51;101340.72;4933661;28;20003;-72
2022/05/27 01:09:15;;;;;;;2.92;1.90;;;;;;;15.73;66.68;101338.22;4936683;28;20535;-73
2022/05/27 01:11:53;;;;;;;2.53;1.90;;;;;;;15.76;66.75;101339.75;4936301;28;20022;-72
2022/05/27 01:14:39;;;;;;;3.85;2.30;;;;;;;15.73;66.44;101335.56;4941070;28;20026;-71
2022/05/27 01:17:20;;;;;;;2.20;1.98;;;;;;;15.72;66.85;101328.56;4965549;28;20344;-72
2022/05/27 01:22:44;;;;;;;2.75;1.90;;;;;;;15.65;66.98;101332.00;4956732;28;20080;-74
2022/05/27 01:25:34;;;;;;;3.72;2.10;;;;;;;15.71;67.23;101328.69;4938661;28;20007;-73
2022/05/27 01:28:21;;;;;;;3.38;1.80;;;;;;;15.71;66.54;101332.22;4955875;28;20624;-73
2022/05/27 01:31:00;;;;;;;2.00;1.90;;;;;;;15.66;67.02;101321.16;4958926;28;20374;-74
2022/05/27 01:33:35;;;;;;;5.00;2.25;;;;;;;15.73;66.57;101335.56;4941139;28;20069;-72
2022/05/27 01:36:42;;;;;;;2.67;2.47;;;;;;;15.53;67.19;101331.41;4941991;28;20003;-74
2022/05/27 01:39:24;;;;;;;3.85;2.00;;;;;;;15.56;67.32;101333.75;4915499;28;20035;-74
2022/05/27 01:42:01;;;;;;;2.17;2.00;;;;;;;15.57;67.26;101319.44;4959205;28;20276;-73
2022/05/27 01:44:42;;;;;;;2.35;1.75;;;;;;;15.49;67.51;101324.72;4950673;28;20819;-72
2022/05/27 01:47:09;;;;;;;2.45;2.25;;;;;;;15.53;67.84;101315.41;4965170;28;20015;-72
2022/05/27 01:49:37;;;;;;;3.20;1.90;;;;;;;15.39;68.08;101312.28;4966651;28;20065;-71
2022/05/27 01:52:08;;;;;;;2.63;1.75;;;;;;;15.22;68.61;101318.50;4962551;28;20018;-72
2022/05/27 01:54:46;;;;;;;2.45;1.80;;;;;;;15.22;68.89;101313.16;4983085;28;20010;-73
2022/05/27 01:57:18;;;;;;;2.95;1.90;;;;;;;15.22;68.99;101315.81;4989201;28;20022;-73
2022/05/27 02:00:10;;;;;;;2.60;1.85;;;;;;;15.29;68.90;101309.72;4955703;28;20061;-73
2022/05/27 02:02:39;;;;;;;3.45;1.90;;;;;;;15.35;68.85;101305.59;4919694;28;20145;-72
2022/05/27 02:05:13;;;;;;;2.10;1.90;;;;;;;15.32;68.66;101300.56;4932841;28;20818;-71
2022/05/27 02:07:56;;;;;;;3.15;2.10;;;;;;;15.37;68.46;101298.28;4934945;28;20019;-71
2022/05/27 02:10:41;;;;;;;4.53;2.28;;;;;;;15.41;68.30;101297.00;4934413;28;20219;-72
2022/05/27 02:13:13;;;;;;;3.92;2.63;;;;;;;15.36;68.63;101306.44;4933259;28;20042;-73
2022/05/27 02:15:41;;;;;;;4.32;2.80;;;;;;;15.24;68.75;101313.84;4953084;28;20046;-72
2022/05/27 02:18:15;;;;;;;7.25;2.80;;;;;;;15.25;68.95;101303.00;4970290;28;20307;-72
2022/05/27 02:20:42;;;;;;;5.18;2.70;;;;;;;15.19;68.92;101303.63;4967574;28;20022;-74
2022/05/27 02:23:15;;;;;;;2.60;2.40;;;;;;;15.20;69.03;101305.31;4936079;28;20041;-73
2022/05/27 02:25:41;;;;;;;4.72;2.25;;;;;;;15.20;68.90;101305.31;4952321;28;20195;-73
2022/05/27 02:28:12;;;;;;;4.30;2.75;;;;;;;15.29;68.89;101301.72;4936701;28;20007;-72
2022/05/27 02:30:40;;;;;;;3.08;2.30;;;;;;;15.32;68.09;101292.56;4951661;28;20065;-73
2022/05/27 02:35:52;;;;;;;2.28;2.10;;;;;;;15.27;68.29;101305.53;4951723;28;20538;-72
2022/05/27 02:38:18;;;;;;;3.50;2.30;;;;;;;15.24;68.52;101303.16;4927669;28;20039;-72
2022/05/27 02:41:14;;;;;;;2.78;2.28;;;;;;;15.25;68.82;101319.00;4928275;28;20073;-73
2022/05/27 02:43:45;;;;;;;3.97;2.20;;;;;;;15.19;68.85;101306.31;4929303;28;21082;-73
2022/05/27 02:46:39;;;;;;;4.30;1.98;;;;;;;15.23;69.14;101298.81;4954768;28;20024;-74
2022/05/27 02:49:32;;;;;;;4.63;1.95;;;;;;;15.19;69.37;101300.13;4978473;28;20033;-71
2022/05/27 02:52:00;;;;;;;4.05;2.00;;;;;;;15.04;70.47;101308.66;4951559;28;20030;-71
2022/05/27 02:54:52;;;;;;;2.97;2.15;;;;;;;14.98;70.93;101303.94;4952939;28;20003;-72
2022/05/27 02:57:42;;;;;;;2.70;1.90;;;;;;;14.93;71.61;101307.06;4933932;28;20003;-72
2022/05/27 03:00:16;;;;;;;4.78;2.03;;;;;;;14.85;72.62;101301.66;4945599;28;20037;-72
2022/05/27 03:02:42;;;;;;;3.25;2.03;;;;;;;14.79;73.82;101296.09;4916298;28;20081;-71
2022/05/27 03:05:07;;;;;;;2.72;1.90;;;;;;;14.70;75.46;101295.16;4937332;28;21043;-72
2022/05/27 03:07:43;;;;;;;2.90;2.00;;;;;;;14.71;75.57;101296.84;4932080;28;20898;-74
2022/05/27 03:10:46;;;;;;;4.47;2.22;;;;;;;14.58;75.81;101299.81;4949278;28;20022;-73
2022/05/27 03:13:15;;;;;;;2.72;2.13;;;;;;;14.56;76.35;101299.16;4948264;28;20027;-73
2022/05/27 03:15:50;;;;;;;4.20;1.98;;;;;;;14.57;77.06;101300.81;4962840;28;20713;-74
2022/05/27 03:18:23;;;;;;;4.88;2.30;;;;;;;14.48;77.23;101296.38;4971142;28;20419;-71
2022/05/27 03:20:49;;;;;;;4.45;2.47;;;;;;;14.45;77.62;101296.69;4952288;28;20018;-74
2022/05/27 03:23:50;;;;;;;3.85;2.35;;;;;;;14.43;77.98;101289.69;4973163;28;20103;-74
2022/05/27 03:26:34;;;;;;;4.72;2.78;;;;;;;14.36;77.88;101304.56;4969349;28;20029;-73
2022/05/27 03:29:11;;;;;;;;;;;;;;;14.35;78.42;101289.56;4967568;28;20469;-73
2022/05/27 03:31:42;;;;;;;4.50;2.40;;;;;;;14.34;78.60;101287.91;4968449;28;20143;-73
2022/05/27 03:34:33;;;;;;;3.08;2.70;;;;;;;14.37;77.88;101281.47;4953193;28;21017;-72
2022/05/27 03:37:15;;;;;;;3.90;2.45;;;;;;;14.26;78.52;101298.47;4953339;28;20064;-71
2022/05/27 03:39:49;;;;;;;3.83;2.72;;;;;;;14.16;78.80;101287.03;4968609;28;20046;-70
2022/05/27 03:42:14;;;;;;;4.55;2.83;;;;;;;14.18;78.77;101282.38;4967089;28;20983;-72
2022/05/27 03:44:49;;;;;;;4.13;2.65;;;;;;;14.21;78.64;101296.25;4951055;28;20010;-73
2022/05/27 03:47:15;;;;;;;3.78;2.58;;;;;;;14.05;79.26;101288.88;4952230;28;20023;-72
2022/05/27 03:49:40;;;;;;;3.78;2.50;;;;;;;13.99;79.22;101297.44;4967698;28;20030;-74
2022/05/27 03:52:12;;;;;;;2.65;2.17;;;;;;;14.00;79.22;101279.66;4967695;28;20776;-73
2022/05/27 03:54:38;;;;;;;2.88;2.38;;;;;;;13.97;79.20;101287.94;4952162;28;20882;-74
2022/05/27 03:57:04;;;;;;;3.00;2.00;;;;;;;14.05;79.20;101288.88;4969305;28;20014;-73
2022/05/27 03:59:29;;;;;;;2.30;2.10;;;;;;;14.13;79.24;101293.47;4970912;28;20189;-73
2022/05/27 04:01:55;;;;;;;2.30;2.10;;;;;;;14.21;79.06;101295.41;4965038;28;20218;-74
2022/05/27 04:04:22;;;;;;;3.55;2.03;;;;;;;14.23;79.35;101290.78;4950739;28;20109;-74
2022/05/27 04:06:47;;;;;;;3.58;2.10;;;;;;;14.22;79.12;101289.09;4952559;28;20049;-74
2022/05/27 04:09:13;;;;;;;2.20;2.10;;;;;;;14.17;79.33;101289.53;4970262;28;20763;-73
2022/05/27 04:11:39;;;;;;;4.82;2.50;;;;;;;14.12;79.89;101286.47;4951147;28;20365;-74
2022/05/27 04:14:04;;;;;;;3.63;1.90;;;;;;;14.13;79.66;101287.31;4949645;28;20018;-74
2022/05/27 04:16:29;;;;;;;2.08;1.95;;;;;;;14.02;80.37;101269.72;4935150;28;20057;-74
2022/05/27 04:18:55;;;;;;;2.30;2.20;;;;;;;14.01;80.37;101271.53;4968033;28;20018;-73
2022/05/27 04:21:20;;;;;;;2.53;2.33;;;;;;;14.05;80.63;101285.38;4936604;28;20135;-74
2022/05/27 04:23:45;;;;;;;2.45;2.25;;;;;;;14.00;81.12;101282.31;4955977;28;20061;-75
2022/05/27 04:26:11;;;;;;;1.88;1.77;;;;;;;14.05;81.25;101286.22;4954782;28;20910;-75
2022/05/27 04:28:36;;;;;;;3.80;2.00;;;;;;;14.08;81.36;101291.25;4973167;28;20029;-74
2022/05/27 04:31:02;;;;;;;3.58;2.30;;;;;;;14.04;81.55;101289.03;4974626;28;20018;-74
2022/05/27 04:33:28;;;;;;;2.40;2.30;;;;;;;14.04;81.88;101292.50;4976865;28;20215;-73
2022/05/27 04:35:57;;;;;;;6.15;2.50;;;;;;;14.01;82.25;101290.16;4975099;28;20352;-73
2022/05/27 04:38:22;;;;;;;2.50;2.30;;;;;;;13.97;83.33;101288.75;4976740;28;20080;-72
2022/05/27 04:40:47;;;;;;;6.75;2.80;;;;;;;13.91;83.80;101276.06;4961391;28;20030;-73
2022/05/27 04:43:13;;;;;;;3.97;2.85;;;;;;;13.93;84.29;101294.53;4959479;28;20379;-74
2022/05/27 04:45:39;;;;;;;3.42;2.95;;;;;;;13.90;85.03;101280.53;4976358;28;20418;-74
2022/05/27 04:48:04;;;;;;;3.13;2.90;;;;;;;13.74;85.57;101283.78;4979731;28;20026;-74
2022/05/27 04:50:30;;;;;;;3.13;2.90;;;;;;;13.72;86.96;101293.75;4969839;28;20011;-73
2022/05/27 04:52:55;;;;;;;4.05;2.90;;;;;;;13.73;87.20;101284.81;4944046;28;20019;-73
2022/05/27 04:55:22;;;;;;;5.93;3.22;;;;;;;13.72;87.55;101284.91;4959544;28;20092;-74
2022/05/27 04:57:53;;;;;;;3.50;3.17;;;;;;;13.87;88.07;101290.63;4942417;28;20093;-74
2022/05/27 05:00:26;;;;;;;5.78;3.50;;;;;;;13.83;87.55;101297.22;4941552;28;20015;-75
2022/05/27 05:02:51;;;;;;;3.67;3.33;;;;;;;13.69;87.70;101302.03;4942987;28;20145;-72
2022/05/27 05:05:19;;;;;;;3.90;3.50;;;;;;;13.70;88.75;101293.03;4975915;28;20026;-73
2022/05/27 05:07:45;;;;;;;3.70;3.40;;;;;;;13.71;88.62;101293.91;4993994;28;20014;-74
2022/05/27 05:10:12;;;;;;;4.30;3.78;;;;;;;13.72;90.24;101288.44;4976980;28;20094;-73
2022/05/27 05:12:38;;;;;;;4.45;4.05;;;;;;;13.71;90.30;101289.41;4963945;28;20394;-73
2022/05/27 05:15:04;;;;;;;4.45;4.15;;;;;;;13.69;89.35;101299.38;4946252;28;20977;-74
2022/05/27 05:17:29;;;;;;;4.50;4.10;;;;;;;13.80;89.81;101295.69;4964546;28;20015;-73
2022/05/27 05:19:55;;;;;;;6.90;4.15;;;;;;;13.72;89.37;101288.44;4950533;28;20029;-74
2022/05/27 05:22:21;;;;;;;4.60;4.30;;;;;;;13.65;90.97;101299.78;4967118;28;20805;-74
2022/05/27 05:24:46;;;;;;;5.28;4.57;;;;;;;13.78;92.35;101291.50;4950152;28;20255;-74
2022/05/27 05:27:12;;;;;;;4.90;4.50;;;;;;;13.81;92.41;101293.88;4931720;28;20087;-74
2022/05/27 05:29:37;;;;;;;5.10;4.72;;;;;;;13.81;91.31;101294.69;4967344;28;20101;-73
2022/05/27 05:32:04;;;;;;;5.10;4.60;;;;;;;13.82;91.53;101306.16;4964579;28;20019;-75
2022/05/27 05:34:30;;;;;;;4.78;4.40;;;;;;;13.81;92.64;101297.38;4965786;28;20002;-74
2022/05/27 05:36:56;;;;;;;6.13;4.15;;;;;;;13.83;90.96;101313.19;4964024;28;20008;-74
2022/05/27 05:39:21;;;;;;;4.57;4.18;;;;;;;13.78;92.06;101324.25;4969587;28;20829;-74
2022/05/27 05:41:58;;;;;;;4.97;3.92;;;;;;;13.73;92.42;101326.50;4950334;28;20105;-73
2022/05/27 05:44:23;;;;;;;3.92;3.72;;;;;;;13.77;93.06;101322.56;4965797;28;20386;-74
2022/05/27 05:46:49;;;;;;;4.75;3.55;;;;;;;13.78;91.96;101323.44;4932716;28;20483;-75
2022/05/27 05:49:14;;;;;;;2.60;2.38;;;;;;;13.67;90.92;101324.41;4950802;28;20766;-73
2022/05/27 05:51:39;;;;;;;2.80;2.20;;;;;;;13.73;90.82;101319.38;4948559;28;20118;-77
2022/05/27 05:54:05;;;;;;;2.42;2.22;;;;;;;13.74;90.67;101326.34;4949514;28;20027;-74
2022/05/27 05:56:31;;;;;;;2.10;1.90;;;;;;;13.68;91.66;101334.91;4963282;28;20018;-73
2022/05/27 05:58:56;;;;;;;2.42;1.80;;;;;;;13.67;91.23;101330.56;4951212;28;20211;-74
2022/05/27 06:01:21;;;;;;;3.10;1.60;;;;;;;13.73;91.71;101332.69;4931790;28;20030;-73
2022/05/27 06:03:47;;;;;;;1.65;1.55;;;;;;;13.78;91.45;101336.72;4932697;28;20110;-72
2022/05/27 06:06:12;;;;;;;1.73;1.60;;;;;;;13.76;90.97;101338.69;4950320;28;20355;-73
2022/05/27 06:08:38;;;;;;;2.00;1.60;;;;;;;13.70;91.21;101346.25;4949175;28;20036;-74
2022/05/27 06:11:07;;;;;;;1.63;1.42;;;;;;;13.69;90.47;101349.03;4946867;28;20012;-73
2022/05/27 06:13:32;;;;;;;1.50;1.20;;;;;;;13.74;89.30;101352.94;4950411;28;20121;-73
2022/05/27 06:15:57;;;;;;;3.60;1.70;;;;;;;13.71;89.35;101347.91;4964603;28;20087;-73
2022/05/27 06:18:23;;;;;;;1.50;1.40;;;;;;;13.73;89.00;101356.63;4966505;28;20030;-73
2022/05/27 06:20:48;;;;;;;1.83;1.40;;;;;;;13.84;89.49;101352.09;4947179;28;20333;-73
2022/05/27 06:23:14;;;;;;;1.58;1.45;;;;;;;13.83;88.78;101361.91;4949126;28;20046;-72
2022/05/27 06:25:40;;;;;;;1.48;1.30;;;;;;;13.95;88.10;101359.09;4967919;28;20002;-74
2022/05/27 06:36:18;;;;;;;2.53;1.33;;;;;;;14.06;85.23;101373.06;4982346;28;20067;-73
2022/05/27 06:38:43;;;;;;;2.30;1.60;;;;;;;14.11;85.26;101369.13;4965354;28;20042;-74
2022/05/27 06:41:08;;;;;;;4.35;1.92;;;;;;;14.15;85.93;101370.53;4966766;28;20010;-73
2022/05/27 06:43:34;;;;;;;2.15;1.58;;;;;;;14.12;84.86;101371.66;4932015;28;20038;-74
2022/05/27 06:46:00;;;;;;;3.92;1.60;;;;;;;14.08;85.92;101376.41;4964092;28;20021;-73
2022/05/27 06:48:25;;;;;;;4.10;1.45;;;;;;;13.99;86.03;101361.31;4930520;28;20203;-71
2022/05/27 06:50:51;;;;;;;4.82;1.50;;;;;;;14.02;86.64;101369.00;4952069;28;20508;-73
2022/05/27 06:53:16;;;;;;;4.68;1.60;;;;;;;14.11;86.63;101377.13;4945363;28;20251;-73
2022/05/27 06:55:47;;;;;;;3.90;1.67;;;;;;;14.00;86.43;101368.31;4929843;28;20018;-73
2022/05/27 06:58:12;;;;;;;3.40;2.03;;;;;;;14.15;86.52;101381.16;4929947;28;20112;-73
2022/05/27 07:00:38;;;;;;;2.50;1.73;;;;;;;14.27;85.48;101374.69;4929079;28;20274;-74
2022/05/27 07:03:05;;;;;;;3.90;1.70;;;;;;;14.26;84.76;101375.66;4948879;28;20049;-74
2022/05/27 07:05:30;;;;;;;4.82;1.55;;;;;;;14.30;83.96;101373.53;4914871;28;20876;-74
2022/05/27 07:07:58;;;;;;;5.43;1.77;;;;;;;14.33;83.17;101371.44;4945978;28;20243;-74
2022/05/27 07:10:23;;;;;;;3.17;1.70;;;;;;;14.46;83.06;101375.59;4931173;28;20017;-73
2022/05/27 07:12:49;;;;;;;5.75;1.70;;;;;;;14.43;82.95;101385.53;4916780;28;20045;-73
2022/05/27 07:15:16;;;;;;;2.97;1.70;;;;;;;14.40;82.02;101383.16;4943287;28;20014;-74
2022/05/27 07:17:41;;;;;;;4.55;1.58;;;;;;;14.57;82.61;101388.72;4930440;28;20018;-74
2022/05/27 07:20:07;;;;;;;3.38;1.60;;;;;;;14.43;82.52;101396.19;4948545;28;20085;-73
2022/05/27 07:22:33;;;;;;;4.88;1.85;;;;;;;14.50;83.31;101390.28;4962883;28;20137;-73
2022/05/27 07:24:58;;;;;;;3.28;1.70;;;;;;;14.48;82.38;101397.56;4932024;28;20014;-73
2022/05/27 07:27:23;;;;;;;3.20;1.60;;;;;;;14.46;81.78;101395.06;4947336;28;20022;-74
2022/05/27 07:29:49;;;;;;;9.05;1.85;;;;;;;14.45;81.03;101393.38;4964064;28;20022;-74
2022/05/27 07:32:14;;;;;;;3.45;1.70;;;;;;;14.41;81.03;101382.19;4929368;28;20088;-74
2022/05/27 07:34:40;;;;;;;6.20;1.95;;;;;;;14.59;80.84;101373.41;4931847;28;20023;-75
2022/05/27 07:37:05;;;;;;;5.75;2.10;;;;;;;14.67;79.60;101375.38;4948920;28;20177;-73
2022/05/27 07:39:30;;;;;;;3.88;2.00;;;;;;;14.61;80.07;101360.81;4933585;28;20050;-73
2022/05/27 07:41:56;;;;;;;5.75;1.83;;;;;;;14.84;81.40;101373.75;4949387;28;20520;-74
2022/05/27 07:44:21;;;;;;;4.35;2.00;;;;;;;15.09;80.37;101369.53;4955833;28;20034;-73
2022/05/27 07:46:46;;;;;;;5.68;2.20;;;;;;;15.41;78.07;101368.13;4952898;28;20013;-75
2022/05/27 07:49:12;;;;;;;4.18;2.08;;;;;;;15.72;77.78;101375.72;4954114;28;20018;-73
2022/05/27 07:51:38;;;;;;;5.65;1.90;;;;;;;15.82;76.95;101381.88;4970935;28;20018;-73
2022/05/27 07:54:03;;;;;;;2.95;2.03;;;;;;;15.75;77.29;101383.41;4972508;28;20023;-74
2022/05/27 07:56:28;;;;;;;4.50;2.10;;;;;;;15.73;78.72;101385.41;4956102;28;20395;-74
2022/05/27 07:58:54;;;;;;;3.80;1.90;;;;;;;15.65;75.45;101388.84;4975792;28;20003;-75
2022/05/27 08:01:19;;;;;;;4.22;2.10;;;;;;;15.84;75.81;101389.72;4941311;28;19999;-75
2022/05/27 08:03:45;;;;;;;5.22;1.70;;;;;;;16.01;72.14;101388.81;4956884;28;20111;-75
2022/05/27 08:06:10;;;;;;;3.58;1.77;;;;;;;15.99;74.27;101385.50;4958991;28;20017;-73
2022/05/27 08:08:36;;;;;;;5.38;1.70;;;;;;;16.11;72.89;101396.72;4959702;28;20702;-74
2022/05/27 08:11:02;;;;;;;4.15;1.95;;;;;;;16.27;72.20;101383.47;4958546;28;20914;-74
2022/05/27 08:13:27;;;;;;;4.45;2.00;;;;;;;16.20;69.81;101386.94;4977157;28;20913;-75
2022/05/27 08:15:53;;;;;;;4.18;2.03;;;;;;;16.36;71.57;101384.34;4988311;28;20017;-74
2022/05/27 08:18:20;;;;;;;5.10;1.98;;;;;;;16.33;71.22;101384.69;4979681;28;20064;-75
2022/05/27 08:20:45;;;;;;;4.63;1.88;;;;;;;16.46;72.04;101386.91;4939372;28;20432;-74
2022/05/27 08:23:11;;;;;;;4.93;1.90;;;;;;;16.43;71.93;101384.56;4940850;28;20030;-73
2022/05/27 08:25:37;;;;;;;4.10;1.95;;;;;;;16.29;72.36;101386.00;4933079;28;20014;-73
2022/05/27 08:28:03;;;;;;;6.20;2.35;;;;;;;16.36;75.34;101380.84;4966044;28;20026;-73
2022/05/27 08:30:30;;;;;;;5.60;2.78;;;;;;;16.47;73.04;101381.41;4949068;28;20014;-74
2022/05/27 08:32:56;;;;;;;7.20;2.95;;;;;;;16.69;73.12;101389.84;4965141;28;20014;-74
2022/05/27 08:38:09;;;;;;;6.47;3.20;;;;;;;16.45;72.79;101398.59;4963540;28;20162;-74
2022/05/27 08:41:06;;;;;;;4.80;3.17;;;;;;;16.71;74.51;101403.88;4946345;28;20949;-74
2022/05/27 08:43:33;;;;;;;3.90;3.15;;;;;;;16.80;72.98;101410.94;4948024;28;20447;-74
2022/05/27 08:46:11;;;;;;;4.35;2.80;;;;;;;17.20;71.20;101402.38;4968421;28;20122;-74
2022/05/27 08:48:38;;;;;;;6.18;3.35;;;;;;;17.11;70.91;101406.88;4958362;28;20010;-74
2022/05/27 08:51:25;;;;;;;3.85;3.10;;;;;;;16.96;71.13;101406.66;4947395;28;20034;-73
2022/05/27 08:53:57;;;;;;;7.68;3.03;;;;;;;17.19;71.79;101404.22;4932114;28;20140;-75
2022/05/27 08:59:27;;;;;;;7.72;3.00;;;;;;;17.33;70.20;101402.75;4947271;28;20891;-74
2022/05/27 09:01:54;;;;;;;6.78;3.00;;;;;;;17.14;71.10;101388.66;4910965;28;20714;-74
2022/05/27 09:04:21;;;;;;;7.90;3.00;;;;;;;17.04;72.13;101408.53;4949657;28;20034;-75
2022/05/27 09:06:51;;;;;;;5.55;2.70;;;;;;;16.81;71.63;101398.41;4947911;28;20124;-74
2022/05/27 09:09:21;;;;;;;5.20;2.70;;;;;;;16.74;73.45;101392.88;4951831;28;20347;-73
2022/05/27 09:11:56;;;;;;;5.38;2.67;;;;;;;17.01;71.36;101390.16;4915049;28;20089;-73
2022/05/27 09:14:22;;;;;;;3.58;2.80;;;;;;;17.44;70.33;101389.06;4951978;28;20999;-74
2022/05/27 09:16:55;;;;;;;3.55;3.00;;;;;;;17.95;68.48;101393.41;4969011;28;20061;-74
2022/05/27 09:19:42;;;;;;;3.92;2.97;;;;;;;17.88;66.67;101389.69;4970457;28;20358;-75
2022/05/27 09:22:30;;;;;;;5.25;2.88;;;;;;;17.59;68.00;101385.72;4953441;28;20193;-75
2022/05/27 09:25:15;;;;;;;4.40;2.70;;;;;;;17.41;69.25;101384.00;4968337;28;20057;-74
2022/05/27 09:28:02;;;;;;;2.50;2.30;;;;;;;17.34;70.33;101388.34;4972816;28;20010;-74
2022/05/27 09:30:28;;;;;;;2.75;2.50;;;;;;;17.35;70.48;101376.66;4968821;28;20795;-75
2022/05/27 09:32:55;;;;;;;5.72;3.03;;;;;;;17.89;69.28;101386.84;4932123;28;20036;-74
2022/05/27 09:35:29;;;;;;;4.10;2.50;;;;;;;18.65;68.36;101376.59;4951615;28;20034;-74
2022/05/27 09:37:55;;;;;;;3.45;2.60;;;;;;;18.94;67.05;101372.47;4968898;28;20042;-75
2022/05/27 09:40:38;;;;;;;4.03;3.00;;;;;;;18.88;61.95;101368.66;4967521;28;20041;-75
2022/05/27 09:43:16;;;;;;;3.20;2.90;;;;;;;19.19;60.62;101375.00;4970365;28;20666;-74
2022/05/27 09:45:43;;;;;;;4.00;2.78;;;;;;;19.22;60.19;101377.34;4929651;28;20619;-75
2022/05/27 09:48:08;;;;;;;4.15;2.50;;;;;;;19.32;60.63;101374.41;4964976;28;20007;-76
2022/05/27 09:50:42;;;;;;;5.07;2.45;;;;;;;19.18;59.21;101376.84;4949621;28;20148;-74
2022/05/27 09:53:07;;;;;;;3.15;2.83;;;;;;;18.81;60.99;101383.75;4951968;28;20296;-76
2022/05/27 09:55:43;;;;;;;3.50;3.15;;;;;;;19.62;58.57;101361.09;4935487;28;20200;-73
2022/05/27 09:58:08;;;;;;;7.15;3.60;;;;;;;19.72;58.07;101367.03;4951834;28;20019;-73
2022/05/27 10:00:44;;;;;;;3.72;3.33;;;;;;;20.24;56.12;101362.66;4969098;28;20318;-74
2022/05/27 10:03:28;;;;;;;2.70;2.50;;;;;;;19.84;55.07;101359.38;4970853;28;20030;-73
2022/05/27 10:05:55;;;;;;;4.00;2.60;;;;;;;19.68;55.42;101363.88;4969663;28;20022;-74
2022/05/27 10:08:32;;;;;;;3.58;2.60;;;;;;;19.61;54.35;101362.09;4951529;28;20121;-74
2022/05/27 10:11:16;;;;;;;4.90;2.50;;;;;;;19.37;54.68;101363.97;4936003;28;20018;-74
2022/05/27 10:13:41;;;;;;;5.07;2.20;;;;;;;19.02;54.91;101352.81;4951684;28;20034;-74
2022/05/27 10:16:13;;;;;;;4.53;2.33;;;;;;;19.24;55.79;101364.56;4968499;28;21306;-73
2022/05/27 10:18:41;;;;;;;3.28;2.42;;;;;;;19.37;55.83;101359.47;4969107;28;20201;-75
2022/05/27 10:21:18;;;;;;;3.03;2.03;;;;;;;20.61;53.84;101349.28;4932641;28;20010;-74
2022/05/27 10:23:45;;;;;;;5.25;2.50;;;;;;;21.59;51.91;101363.19;4950089;28;20814;-75
2022/05/27 10:26:20;;;;;;;4.70;2.38;;;;;;;22.01;46.99;101361.41;4949975;28;20045;-73
2022/05/27 10:28:46;;;;;;;4.22;2.20;;;;;;;21.64;49.34;101360.72;4968787;28;20057;-75
2022/05/27 10:31:16;;;;;;;3.55;2.08;;;;;;;21.07;47.53;101349.00;4953689;28;20014;-75
2022/05/27 10:33:43;;;;;;;6.78;2.15;;;;;;;20.69;48.40;101358.09;4953391;28;20022;-74
2022/05/27 10:36:28;;;;;;;5.57;2.20;;;;;;;20.67;49.36;101343.13;4953242;28;20006;-73
2022/05/27 10:39:02;;;;;;;3.67;1.85;;;;;;;20.75;48.58;101343.06;4972285;28;20459;-74
2022/05/27 10:42:00;;;;;;;4.00;2.35;;;;;;;21.59;46.30;101330.84;4970000;28;20014;-75
2022/05/27 10:45:03;;;;;;;2.25;2.00;;;;;;;22.58;44.43;101337.03;4959862;28;20408;-74
2022/05/27 10:47:53;;;;;;;3.53;1.90;;;;;;;22.51;45.03;101342.41;4963063;28;20026;-73
2022/05/27 10:50:41;;;;;;;2.10;1.70;;;;;;;21.50;43.12;101343.56;4973062;28;20432;-75
2022/05/27 10:53:32;;;;;;;4.10;1.90;;;;;;;20.99;44.38;101354.50;4941857;28;20497;-74
2022/05/27 10:56:06;;;;;;;2.17;1.50;;;;;;;20.34;45.59;101332.81;4975615;28;20019;-75
2022/05/27 11:02:05;;;;;;;3.88;2.20;;;;;;;19.66;48.38;101330.19;4975051;28;20895;-74
2022/05/27 11:04:39;;;;;;;3.15;1.75;;;;;;;19.49;49.64;101335.69;4977521;28;20137;-74
2022/05/27 11:07:24;;;;;;;3.53;1.85;;;;;;;19.54;49.33;101337.81;4961538;28;20911;-74
2022/05/27 11:09:57;;;;;;;3.50;1.90;;;;;;;19.43;49.27;101351.69;4925774;28;20359;-74
2022/05/27 11:15:40;;;;;;;5.07;2.08;;;;;;;21.18;48.40;101356.56;4975501;28;20258;-75
2022/05/27 11:18:21;;;;;;;9.73;2.65;;;;;;;21.30;47.06;101353.34;4962403;28;20373;-75
2022/05/27 11:21:14;;;;;;;3.15;2.00;;;;;;;22.64;45.27;101347.81;4959683;28;20021;-74
2022/05/27 11:23:58;;;;;;;3.13;1.95;;;;;;;23.55;43.46;101352.97;4959530;28;20399;-75
2022/05/27 11:26:32;;;;;;;4.15;2.40;;;;;;;24.03;42.65;101352.78;4948941;28;20088;-74
2022/05/27 11:29:06;;;;;;;4.47;1.98;;;;;;;24.34;41.99;101354.75;4983392;28;20350;-75
2022/05/27 11:31:55;;;;;;;4.55;1.80;;;;;;;23.12;41.73;101359.63;4967431;28;20614;-74
2022/05/27 11:34:45;;;;;;;4.25;2.28;;;;;;;22.43;43.83;101348.78;4951458;28;20031;-75
2022/05/27 11:37:44;;;;;;;7.05;2.60;;;;;;;23.30;43.83;101348.22;4948367;28;20014;-75
2022/05/27 11:40:16;;;;;;;6.35;2.25;;;;;;;23.13;43.06;101347.78;4948365;28;20003;-75
2022/05/27 11:42:55;;;;;;;7.22;2.10;;;;;;;23.93;40.15;101341.53;4948658;28;20499;-75
2022/05/27 11:45:26;;;;;;;5.75;2.10;;;;;;;23.87;39.66;101345.91;4960683;28;20510;-75
2022/05/27 11:48:32;;;;;;;6.90;2.30;;;;;;;23.10;42.31;101345.47;4966193;28;20015;-75
2022/05/27 11:51:20;;;;;;;4.20;1.80;;;;;;;23.41;42.13;101347.59;4966162;28;20092;-75
2022/05/27 11:54:18;;;;;;;4.15;1.88;;;;;;;24.78;40.77;101343.34;4970311;28;20159;-75
2022/05/27 11:56:47;;;;;;;3.72;1.85;;;;;;;25.36;37.75;101350.47;4953171;28;20025;-75
2022/05/27 11:59:25;;;;;;;3.00;1.88;;;;;;;25.14;37.91;101341.84;4965869;28;20015;-74
2022/05/27 12:01:59;;;;;;;6.60;2.38;;;;;;;25.48;36.94;101339.75;4967063;28;20018;-75
2022/05/27 12:04:51;;;;;;;4.35;2.00;;;;;;;25.93;37.08;101335.97;4950304;28;20078;-75
2022/05/27 12:07:35;;;;;;;4.60;2.13;;;;;;;26.22;35.26;101340.69;4951896;28;20015;-74
2022/05/27 12:10:19;;;;;;;5.22;2.35;;;;;;;26.09;34.34;101348.16;4969769;28;20068;-75
2022/05/27 12:12:47;;;;;;;;;;;;;;;25.73;35.53;101336.19;4967739;28;20022;-75